Time;durP1;ratioP1;P1;durP2;ratioP2;P2;SDS_P1;SDS_P2;PMS_P1;PMS_P2;Temp;Humidity;BMP_temperature;BMP_pressure;BME280_temperature;BME280_humidity;BME280_pressure;Samples;Min_cycle;Max_cycle;Signal;HPM_P1;HPM_P2
2021/05/09 00:02:27;;;;;;;0.20;0.20;;;14.90;65.50;;;17.84;53.20;100679.94;5047653;27;98766;-66
2021/05/09 00:04:57;;;;;;;0.20;0.20;;;14.90;65.50;;;17.79;52.84;100687.53;5028790;27;97704;-66
2021/05/09 00:07:25;;;;;;;0.43;0.43;;;14.90;65.60;;;17.80;52.98;100689.91;5028497;27;97738;-66
2021/05/09 00:09:52;;;;;;;0.40;0.40;;;14.90;65.60;;;17.76;52.73;100683.63;5049294;27;97011;-66
2021/05/09 00:12:20;;;;;;;0.10;0.10;;;14.80;65.60;;;17.73;53.15;100689.75;5049090;27;97850;-66
2021/05/09 00:14:49;;;;;;;1.75;0.50;;;14.80;65.60;;;17.67;53.19;100693.81;5032989;27;97745;-66
2021/05/09 00:17:16;;;;;;;0.50;0.25;;;14.80;65.70;;;17.65;52.94;100698.03;5045268;27;97971;-67
2021/05/09 00:19:45;;;;;;;0.03;0.03;;;14.70;65.70;;;17.59;53.39;100688.59;5034195;27;96919;-66
2021/05/09 00:22:13;;;;;;;0.65;0.50;;;14.70;65.70;;;17.53;53.01;100684.56;5034409;27;96809;-66
2021/05/09 00:24:40;;;;;;;0.20;0.20;;;14.60;65.80;;;17.52;52.80;100689.19;5031548;27;97783;-66
2021/05/09 00:27:08;;;;;;;0.13;0.13;;;14.60;65.80;;;17.52;53.79;100685.69;5053420;27;96834;-66
2021/05/09 00:29:36;;;;;;;0.75;0.52;;;14.60;65.80;;;17.50;53.58;100683.34;5051452;27;96921;-66
2021/05/09 00:32:05;;;;;;;0.55;0.55;;;14.50;65.80;;;17.46;53.22;100678.97;5052081;27;96695;-66
2021/05/09 00:34:33;;;;;;;0.45;0.45;;;14.50;65.80;;;17.43;53.40;100677.75;5051973;27;97843;-66
2021/05/09 00:37:14;;;;;;;0.28;0.22;;;14.50;66.50;;;17.38;52.80;100669.84;5050625;27;97620;-66
2021/05/09 00:39:44;;;;;;;0.90;0.75;;;14.40;65.90;;;17.37;53.26;100671.00;5054711;27;96982;-66
2021/05/09 00:42:12;;;;;;;0.17;0.17;;;14.40;65.90;;;17.32;53.49;100663.09;5036144;27;98006;-66
2021/05/09 00:44:39;;;;;;;6.55;0.75;;;14.30;65.90;;;17.26;53.70;100671.81;5048225;27;97799;-66
2021/05/09 00:47:12;;;;;;;2.70;1.92;;;14.30;66.00;;;17.17;53.43;100667.72;5016029;27;96863;-66
2021/05/09 00:49:41;;;;;;;5.28;0.57;;;14.20;66.00;;;17.13;53.34;100654.06;5033096;27;96827;-66
2021/05/09 00:52:13;;;;;;;0.90;0.70;;;14.20;66.00;;;17.08;53.00;100659.75;5052257;27;98190;-66
2021/05/09 00:54:53;;;;;;;1.15;0.75;;;14.20;66.10;;;17.04;52.95;100655.38;5016399;27;97734;-66
2021/05/09 00:57:23;;;;;;;1.17;0.55;;;14.10;66.10;;;17.02;53.27;100652.22;5040430;27;96846;-66
2021/05/09 00:59:53;;;;;;;0.22;0.22;;;14.10;66.20;;;16.95;53.61;100654.75;5051102;27;98946;-66
2021/05/09 01:02:21;;;;;;;1.75;0.85;;;14.00;66.20;;;17.00;53.46;100655.28;5033831;27;96985;-66
2021/05/09 01:04:51;;;;;;;0.10;0.10;;;14.00;66.20;;;17.00;52.95;100652.56;5020079;27;97574;-65
2021/05/09 01:07:21;;;;;;;0.10;0.10;;;14.00;66.30;;;16.97;53.20;100649.75;5033987;27;96974;-66
2021/05/09 01:09:49;;;;;;;1.67;0.50;;;13.90;66.20;;;16.94;52.87;100645.81;5031952;27;97078;-66
2021/05/09 01:12:17;;;;;;;0.20;0.20;;;13.90;66.30;;;16.88;53.93;100647.19;5027746;27;97113;-63
2021/05/09 01:14:45;;;;;;;0.75;0.75;;;13.80;66.20;;;16.77;53.36;100651.53;5043924;27;97993;-64
2021/05/09 01:17:14;;;;;;;0.43;0.30;;;13.80;66.30;;;16.71;54.00;100644.81;5030905;27;98151;-64
2021/05/09 01:19:42;;;;;;;0.32;0.30;;;13.80;66.40;;;16.68;54.28;100637.38;5033542;27;96839;-64
2021/05/09 01:22:12;;;;;;;4.25;1.33;;;13.70;66.30;;;16.63;53.36;100640.31;5038148;27;98040;-63
2021/05/09 01:24:40;;;;;;;1.38;0.40;;;13.70;66.40;;;16.61;54.19;100636.38;5033549;27;96916;-63
2021/05/09 01:27:09;;;;;;;1.27;0.82;;;13.70;66.40;;;16.59;53.58;100639.44;5017966;27;97204;-63
2021/05/09 01:29:38;;;;;;;0.30;0.30;;;13.60;66.40;;;16.48;53.91;100637.53;5029040;27;97240;-63
2021/05/09 01:32:07;;;;;;;0.40;0.40;;;13.60;66.40;;;16.48;53.31;100632.94;5014100;27;97659;-63
2021/05/09 01:34:36;;;;;;;0.38;0.25;;;13.60;66.50;;;16.43;53.51;100629.69;5036309;27;98723;-63
2021/05/09 01:37:06;;;;;;;4.45;1.30;;;13.50;66.50;;;16.37;53.75;100634.56;5031961;27;97233;-63
2021/05/09 01:39:35;;;;;;;1.38;0.80;;;13.50;66.50;;;16.38;54.30;100628.00;5037522;27;97018;-63
2021/05/09 01:42:05;;;;;;;0.38;0.38;;;13.50;66.50;;;16.43;53.71;100640.50;5031892;27;97959;-64
2021/05/09 01:44:36;;;;;;;1.17;0.60;;;13.40;66.50;;;16.33;54.28;100630.13;5052674;27;97949;-63
2021/05/09 01:47:04;;;;;;;1.17;0.63;;;13.40;66.50;;;16.26;54.45;100630.69;5030276;27;96785;-64
2021/05/09 01:49:32;;;;;;;0.10;0.10;;;13.30;66.50;;;16.22;53.39;100629.81;5014654;27;97019;-64
2021/05/09 01:52:00;;;;;;;1.48;0.98;;;13.30;66.60;;;16.17;54.10;100632.75;5048723;27;98292;-63
2021/05/09 01:54:31;;;;;;;1.25;0.57;;;13.30;66.70;;;16.13;54.64;100631.06;5018509;27;96912;-66
2021/05/09 01:56:59;;;;;;;0.20;0.20;;;13.20;66.70;;;16.12;53.98;100621.38;5013951;27;97319;-66
2021/05/09 01:59:30;;;;;;;0.28;0.28;;;13.20;66.70;;;16.08;54.20;100620.50;5032758;27;97187;-66
2021/05/09 02:01:58;;;;;;;0.25;0.25;;;13.20;66.70;;;16.02;53.72;100619.16;5033365;27;98018;-66
2021/05/09 02:04:49;;;;;;;3.08;0.82;;;13.10;66.70;;;15.97;54.56;100617.47;5047858;27;97683;-66
2021/05/09 02:07:20;;;;;;;0.20;0.20;;;13.10;66.70;;;15.93;53.83;100610.38;5033693;27;96823;-66
2021/05/09 02:09:50;;;;;;;1.40;1.30;;;13.10;66.80;;;15.89;54.21;100609.47;5033942;27;97418;-66
2021/05/09 02:12:30;;;;;;;0.55;0.55;;;13.00;66.70;;;15.83;54.27;100608.13;5033087;27;97748;-66
2021/05/09 02:15:11;;;;;;;0.25;0.25;;;13.00;66.80;;;15.85;54.78;100603.16;5031685;27;97838;-66
2021/05/09 02:17:41;;;;;;;0.22;0.22;;;13.00;66.80;;;15.83;53.93;100600.03;5027824;27;96998;-66
2021/05/09 02:20:16;;;;;;;1.20;0.55;;;13.00;66.80;;;15.78;54.59;100598.34;5051523;27;96887;-66
2021/05/09 02:22:49;;;;;;;0.10;0.10;;;12.90;66.80;;;15.77;54.88;100591.38;5050403;27;99538;-66
2021/05/09 02:25:17;;;;;;;0.10;0.10;;;12.90;66.90;;;15.77;53.94;100587.88;5018774;27;97905;-66
2021/05/09 02:27:46;;;;;;;0.10;0.10;;;12.90;66.80;;;15.75;54.46;100587.44;5034063;27;97702;-67
2021/05/09 02:30:15;;;;;;;0.17;0.17;;;12.90;66.90;;;15.75;54.62;100582.78;5035936;27;96877;-65
2021/05/09 02:32:43;;;;;;;0.47;0.30;;;12.90;67.50;;;15.70;54.29;100584.97;5035254;27;98299;-66
2021/05/09 02:35:12;;;;;;;0.55;0.47;;;12.90;66.80;;;15.64;54.63;100583.63;5025864;27;97038;-66
2021/05/09 02:37:40;;;;;;;0.25;0.25;;;12.80;66.70;;;15.60;53.96;100590.78;5027654;27;96924;-66
2021/05/09 02:40:11;;;;;;;4.47;0.80;;;12.80;66.70;;;15.58;54.62;100576.84;5017062;27;97044;-66
2021/05/09 02:42:39;;;;;;;0.45;0.45;;;12.70;66.70;;;15.51;54.54;100581.25;5028115;27;97858;-66
2021/05/09 02:45:10;;;;;;;0.25;0.25;;;12.70;66.80;;;15.48;54.74;100584.63;5032379;27;100962;-66
2021/05/09 02:47:38;;;;;;;1.38;1.17;;;12.70;66.90;;;15.51;54.25;100587.44;5051921;27;97635;-66
2021/05/09 02:50:12;;;;;;;0.52;0.45;;;12.60;66.90;;;15.40;54.49;100585.50;5049573;27;97056;-66
2021/05/09 02:52:42;;;;;;;0.20;0.20;;;12.60;66.90;;;15.42;54.99;100578.66;5013352;27;98573;-66
2021/05/09 02:55:13;;;;;;;0.00;0.00;;;12.60;67.00;;;15.46;54.78;100584.97;5030615;27;97939;-66
2021/05/09 02:57:43;;;;;;;0.93;0.88;;;12.60;67.10;;;15.52;54.15;100583.59;5034789;27;97138;-66
2021/05/09 03:00:15;;;;;;;3.55;1.33;;;12.50;67.10;;;15.59;54.02;100581.13;5034070;27;96883;-66
2021/05/09 03:03:05;;;;;;;0.10;0.10;;;12.60;67.20;;;15.63;53.58;100589.34;5030831;27;97927;-66
2021/05/09 03:05:33;;;;;;;0.15;0.15;;;12.50;67.00;;;15.60;54.07;100584.63;5047639;27;97910;-66
2021/05/09 03:08:00;;;;;;;0.57;0.50;;;12.50;67.00;;;15.56;54.00;100589.13;5032444;27;96907;-66
2021/05/09 03:10:34;;;;;;;22.02;0.63;;;12.50;67.00;;;15.49;53.85;100583.50;5027983;27;96980;-66
2021/05/09 03:13:02;;;;;;;0.20;0.20;;;12.50;67.00;;;15.40;53.82;100578.22;5030840;27;97467;-68
2021/05/09 03:15:31;;;;;;;1.60;0.50;;;12.50;67.00;;;15.34;54.54;100587.66;5026895;27;97525;-65
2021/05/09 03:17:59;;;;;;;0.50;0.50;;;12.40;66.90;;;15.24;54.32;100577.25;5049351;27;96780;-66
2021/05/09 03:20:27;;;;;;;0.95;0.70;;;12.40;67.00;;;15.26;54.24;100575.00;5050121;27;96737;-66
2021/05/09 03:22:55;;;;;;;0.43;0.43;;;12.40;67.20;;;15.30;54.10;100580.56;5046407;27;98064;-66
2021/05/09 03:25:23;;;;;;;1.55;0.38;;;12.30;67.20;;;15.28;53.96;100572.78;5034265;27;98785;-66
2021/05/09 03:27:51;;;;;;;3.63;1.20;;;12.30;67.10;;;15.20;54.23;100576.34;5051875;27;97030;-65
2021/05/09 03:30:19;;;;;;;0.35;0.35;;;12.30;67.20;;;15.20;54.33;100581.75;5049722;27;96910;-66
2021/05/09 03:32:48;;;;;;;1.15;0.55;;;12.30;67.20;;;15.20;54.68;100575.59;5043386;27;96859;-66
2021/05/09 03:35:16;;;;;;;1.38;1.10;;;12.30;67.20;;;15.21;54.12;100569.06;5015226;27;96933;-66
2021/05/09 03:37:44;;;;;;;0.30;0.30;;;12.20;67.40;;;15.23;54.38;100575.69;5034157;27;96817;-66
2021/05/09 03:40:15;;;;;;;0.73;0.73;;;12.20;67.40;;;15.30;54.40;100581.34;5045113;27;97763;-66
2021/05/09 03:42:42;;;;;;;1.25;1.15;;;12.20;67.30;;;15.33;54.15;100575.28;5049619;27;98174;-66
2021/05/09 03:45:13;;;;;;;0.13;0.13;;;12.30;67.30;;;15.34;54.22;100576.88;5033711;27;97282;-65
2021/05/09 03:47:41;;;;;;;6.80;2.97;;;12.30;67.30;;;15.31;53.77;100574.84;5054436;27;96793;-66
2021/05/09 03:50:11;;;;;;;1.63;1.25;;;12.20;67.20;;;15.29;53.88;100573.59;5054802;27;97185;-66
2021/05/09 03:52:38;;;;;;;1.70;0.70;;;12.20;67.20;;;15.30;53.84;100565.13;5035670;27;97898;-66
2021/05/09 03:55:09;;;;;;;0.38;0.38;;;12.20;67.30;;;15.31;53.80;100577.53;5052982;27;96656;-65
2021/05/09 03:57:37;;;;;;;1.02;0.95;;;12.20;67.30;;;15.28;54.09;100572.78;5050907;27;96920;-66
2021/05/09 04:00:08;;;;;;;1.95;1.80;;;12.20;67.20;;;15.19;53.74;100566.69;5052680;27;96836;-65
2021/05/09 04:02:41;;;;;;;3.13;1.05;;;12.20;67.20;;;15.20;54.00;100573.66;5054335;27;98154;-66
2021/05/09 04:05:13;;;;;;;0.40;0.30;;;12.10;67.20;;;15.13;53.98;100551.84;5047235;27;96967;-66
2021/05/09 04:07:41;;;;;;;0.68;0.55;;;12.10;67.20;;;15.15;54.41;100552.28;5035368;27;97065;-65
2021/05/09 04:10:11;;;;;;;7.90;1.25;;;12.10;67.20;;;15.02;54.24;100550.72;5035862;27;96726;-66
2021/05/09 04:12:38;;;;;;;3.38;0.60;;;12.00;67.20;;;14.96;54.54;100549.31;5032040;27;96946;-67
2021/05/09 04:15:09;;;;;;;0.25;0.25;;;12.00;67.30;;;14.97;54.35;100558.22;5048359;27;96866;-66
2021/05/09 04:17:37;;;;;;;4.72;1.75;;;12.00;67.40;;;14.98;54.46;100557.09;5048962;27;96847;-66
2021/05/09 04:20:11;;;;;;;6.75;0.75;;;11.90;67.30;;;14.97;54.30;100556.28;5024758;27;97059;-66
2021/05/09 04:22:38;;;;;;;2.92;0.95;;;11.90;67.30;;;14.95;54.20;100566.63;5053168;27;97887;-66
2021/05/09 04:25:07;;;;;;;0.30;0.30;;;11.90;67.40;;;14.92;54.10;100564.59;5047804;27;97706;-65
2021/05/09 04:27:35;;;;;;;0.20;0.20;;;11.90;67.40;;;14.95;54.04;100563.94;5035331;27;96891;-66
2021/05/09 04:30:08;;;;;;;0.68;0.68;;;11.90;67.60;;;15.00;54.18;100561.03;5051883;27;96969;-66
2021/05/09 04:32:36;;;;;;;0.50;0.28;;;11.90;67.60;;;15.10;54.24;100566.00;5052237;27;97828;-66
2021/05/09 04:35:06;;;;;;;3.22;1.70;;;11.90;67.60;;;15.16;53.85;100564.66;5050845;27;97799;-66
2021/05/09 04:37:34;;;;;;;0.77;0.47;;;12.00;67.60;;;15.18;54.10;100564.34;5029400;27;96889;-66
2021/05/09 04:40:05;;;;;;;0.85;0.75;;;12.00;67.50;;;15.28;53.98;100567.38;5047739;27;96942;-66
2021/05/09 04:42:33;;;;;;;0.65;0.65;;;12.00;67.50;;;15.31;53.75;100560.53;5051604;27;98386;-65
2021/05/09 04:45:04;;;;;;;0.47;0.47;;;12.00;67.50;;;15.34;54.16;100560.66;5033211;27;97662;-66
2021/05/09 04:47:32;;;;;;;0.80;0.50;;;12.10;67.40;;;15.33;53.62;100559.09;5018101;27;96748;-65
2021/05/09 04:50:00;;;;;;;0.85;0.40;;;12.10;67.50;;;15.43;53.35;100550.53;5051044;27;96732;-66
2021/05/09 04:52:30;;;;;;;0.98;0.55;;;12.10;67.50;;;15.50;53.70;100542.66;5047597;27;97352;-65
2021/05/09 04:54:58;;;;;;;0.65;0.52;;;12.20;67.40;;;15.51;53.07;100536.13;5044865;27;98333;-66
2021/05/09 04:57:26;;;;;;;0.75;0.75;;;12.20;67.30;;;15.57;53.09;100539.38;5047712;27;96812;-66
2021/05/09 04:59:54;;;;;;;3.00;0.85;;;12.30;67.40;;;15.61;53.64;100540.28;5035622;27;96850;-66
2021/05/09 05:02:21;;;;;;;2.00;0.70;;;12.30;67.30;;;15.58;53.73;100547.13;5032097;27;97104;-66
2021/05/09 05:04:50;;;;;;;0.80;0.75;;;12.30;67.30;;;15.63;53.47;100540.72;5035404;27;97690;-66
2021/05/09 05:07:18;;;;;;;0.63;0.63;;;12.40;67.30;;;15.57;53.40;100534.75;5036499;27;96732;-67
2021/05/09 05:09:45;;;;;;;0.50;0.50;;;12.40;67.30;;;15.68;53.84;100527.00;5035909;27;98213;-67
2021/05/09 05:12:14;;;;;;;0.25;0.25;;;12.50;67.30;;;15.79;53.84;100516.19;5014437;27;97165;-66
2021/05/09 05:14:43;;;;;;;0.63;0.40;;;12.50;67.20;;;15.91;53.60;100518.03;5015028;27;97766;-66
2021/05/09 05:17:11;;;;;;;0.40;0.40;;;12.60;67.20;;;15.97;53.66;100517.47;5052471;27;97493;-66
2021/05/09 05:19:38;;;;;;;0.10;0.10;;;12.70;67.30;;;16.05;53.29;100521.94;5050991;27;97214;-66
2021/05/09 05:22:06;;;;;;;0.60;0.60;;;12.80;67.20;;;16.16;53.51;100520.34;5041078;27;97256;-66
2021/05/09 05:24:34;;;;;;;0.38;0.38;;;12.80;67.20;;;16.24;53.78;100518.63;5051870;27;97725;-66
2021/05/09 05:27:03;;;;;;;0.10;0.10;;;12.90;67.20;;;16.30;53.08;100522.66;5052555;27;98173;-66
2021/05/09 05:29:32;;;;;;;1.05;0.90;;;13.00;67.20;;;16.40;53.53;100522.19;5046150;27;96948;-66
2021/05/09 05:32:00;;;;;;;0.98;0.75;;;13.10;67.10;;;16.60;52.49;100529.31;5031371;27;97181;-66
2021/05/09 05:34:30;;;;;;;0.10;0.10;;;13.30;67.10;;;17.05;51.96;100527.00;5049000;27;97735;-66
2021/05/09 05:36:58;;;;;;;0.30;0.30;;;13.40;67.20;;;17.58;51.18;100519.03;5035097;27;97831;-66
2021/05/09 05:39:26;;;;;;;19.98;0.63;;;13.70;67.30;;;17.78;52.17;100515.22;5033435;27;96899;-67
2021/05/09 05:41:56;;;;;;;0.08;0.08;;;13.90;67.40;;;17.97;52.46;100518.72;5036449;27;97209;-66
2021/05/09 05:44:23;;;;;;;1.35;0.47;;;14.30;67.50;;;18.25;52.51;100522.03;5034627;27;97737;-66
2021/05/09 05:46:52;;;;;;;1.35;0.63;;;14.70;67.70;;;18.67;53.00;100522.09;5034955;27;96895;-67
2021/05/09 05:49:20;;;;;;;0.68;0.60;;;15.10;67.70;;;19.24;53.16;100525.47;5048648;27;97316;-66
2021/05/09 05:51:48;;;;;;;0.13;0.13;;;15.70;67.60;;;20.27;51.89;100530.06;5051752;27;99033;-66
2021/05/09 05:54:15;;;;;;;0.55;0.55;;;16.30;67.60;;;21.20;50.67;100534.91;5047845;27;97899;-64
2021/05/09 05:56:43;;;;;;;0.30;0.30;;;17.00;67.30;;;22.02;50.86;100532.38;5049523;27;96981;-64
2021/05/09 05:59:11;;;;;;;0.00;0.00;;;17.70;67.40;;;22.73;50.25;100539.69;5050225;27;96734;-64
2021/05/09 06:01:38;;;;;;;0.35;0.30;;;18.20;67.00;;;23.40;50.00;100546.78;5048521;27;97364;-65
2021/05/09 06:04:08;;;;;;;0.50;0.40;;;18.80;67.20;;;24.03;49.88;100542.03;5033718;27;98039;-64
2021/05/09 06:06:35;;;;;;;0.30;0.28;;;19.40;67.30;;;24.71;49.71;100541.34;5035288;27;96943;-65
2021/05/09 06:09:05;;;;;;;0.85;0.52;;;20.00;67.40;;;25.31;49.84;100538.97;5033222;27;97061;-64
2021/05/09 06:11:33;;;;;;;11.70;0.77;;;20.60;67.30;;;25.72;50.42;100532.31;5049684;27;99358;-64
2021/05/09 06:14:03;;;;;;;0.45;0.40;;;21.00;67.40;;;26.27;50.09;100532.88;5049793;27;97925;-64
2021/05/09 06:16:51;;;;;;;0.17;0.17;;;21.50;67.30;;;26.78;49.89;100524.34;5053547;27;96850;-64
2021/05/09 06:19:20;;;;;;;0.30;0.30;;;22.10;67.30;;;27.18;50.28;100517.88;5046729;27;96861;-65
2021/05/09 06:21:48;;;;;;;0.50;0.50;;;22.50;67.40;;;27.81;49.86;100525.78;5052607;27;97952;-65
2021/05/09 06:24:16;;;;;;;5.95;1.08;;;23.00;67.30;;;28.08;49.91;100526.41;5048494;27;97699;-65
2021/05/09 06:26:44;;;;;;;0.68;0.63;;;23.40;67.30;;;27.92;51.27;100518.09;5032051;27;97289;-64
2021/05/09 06:29:11;;;;;;;9.38;1.52;;;23.60;66.80;;;27.43;52.29;100524.50;5051754;27;97688;-65
2021/05/09 06:31:39;;;;;;;1.83;0.38;;;23.60;66.50;;;26.83;53.10;100525.84;5052141;27;97028;-65
2021/05/09 06:34:09;;;;;;;0.90;0.90;;;23.40;66.30;;;26.32;53.83;100520.63;5051591;27;98180;-65
2021/05/09 06:36:38;;;;;;;2.88;0.50;;;23.20;66.60;;;26.24;53.67;100519.94;5017515;27;97425;-66
2021/05/09 06:39:12;;;;;;;0.70;0.52;;;22.90;66.60;;;26.49;53.00;100516.94;5034539;27;97473;-65
2021/05/09 06:41:39;;;;;;;13.10;0.57;;;22.80;66.70;;;26.61;52.85;100517.13;5050840;27;96923;-66
2021/05/09 06:44:10;;;;;;;0.98;0.95;;;22.90;67.10;;;26.89;52.30;100521.44;5052904;27;97041;-65
2021/05/09 06:46:38;;;;;;;0.82;0.20;;;22.90;67.00;;;27.08;52.23;100524.25;5016002;27;96909;-66
2021/05/09 06:49:05;;;;;;;2.90;0.60;;;23.00;67.10;;;27.33;51.95;100519.97;5052356;27;96845;-66
2021/05/09 06:51:33;;;;;;;0.45;0.43;;;23.20;67.00;;;28.18;50.27;100514.41;5048684;27;96888;-67
2021/05/09 06:54:03;;;;;;;0.52;0.52;;;23.50;67.40;;;28.75;50.01;100508.47;5047926;27;98088;-66
2021/05/09 06:56:32;;;;;;;0.20;0.20;;;23.90;67.30;;;29.24;49.93;100511.59;5051443;27;96850;-66
2021/05/09 06:58:59;;;;;;;1.27;0.85;;;24.30;67.30;;;29.23;49.92;100503.75;5029027;27;96879;-66
2021/05/09 07:01:27;;;;;;;1.02;0.88;;;24.60;66.70;;;28.80;50.94;100516.22;5029816;27;98209;-66
2021/05/09 07:03:55;;;;;;;2.55;0.45;;;24.60;66.50;;;28.73;51.37;100500.59;5050693;27;96887;-66
2021/05/09 07:06:23;;;;;;;0.90;0.50;;;24.50;66.50;;;29.08;50.93;100505.31;5049994;27;96845;-66
2021/05/09 07:08:51;;;;;;;0.28;0.20;;;24.60;66.70;;;29.74;50.19;100502.81;5046895;27;98187;-66
2021/05/09 07:11:19;;;;;;;0.03;0.03;;;24.90;67.00;;;30.43;49.21;100496.50;5029001;27;98488;-66
2021/05/09 07:13:48;;;;;;;0.28;0.28;;;25.40;66.90;;;30.84;48.99;100486.13;5048625;27;97836;-66
2021/05/09 07:16:16;;;;;;;1.10;0.38;;;25.80;67.00;;;31.49;48.40;100484.34;5048440;27;97283;-66
2021/05/09 07:18:44;;;;;;;1.75;0.95;;;26.20;67.10;;;32.07;47.90;100482.63;5051360;27;96928;-66
2021/05/09 07:21:14;;;;;;;0.30;0.20;;;26.70;67.00;;;32.29;48.17;100478.63;5046567;27;96888;-66
2021/05/09 07:23:46;;;;;;;1.02;0.70;;;27.10;66.70;;;32.49;48.42;100470.72;5053465;27;98015;-66
2021/05/09 07:26:15;;;;;;;0.28;0.20;;;27.50;66.20;;;32.41;48.81;100474.97;5016986;27;96778;-66
2021/05/09 07:28:43;;;;;;;0.47;0.47;;;27.70;66.00;;;32.40;49.43;100478.22;5049965;27;97264;-66
2021/05/09 07:31:11;;;;;;;0.22;0.22;;;27.70;66.10;;;32.46;49.11;100474.41;5051480;27;98998;-67
2021/05/09 07:33:39;;;;;;;4.00;0.82;;;27.90;65.90;;;32.18;49.96;100467.19;5036734;27;97251;-66
2021/05/09 07:36:08;;;;;;;8.73;0.57;;;27.80;66.00;;;32.13;50.26;100464.19;5039130;27;97047;-66
2021/05/09 07:38:36;;;;;;;1.02;0.60;;;27.90;65.90;;;31.77;50.64;100461.94;5054720;27;97044;-66
2021/05/09 07:41:05;;;;;;;0.80;0.20;;;27.80;65.70;;;31.80;50.73;100454.72;5050422;27;97281;-66
2021/05/09 07:43:32;;;;;;;0.82;0.52;;;27.70;65.90;;;32.05;50.39;100449.81;5035700;27;96793;-66
2021/05/09 07:46:04;;;;;;;0.63;0.43;;;27.70;66.20;;;32.31;49.99;100440.09;5051492;27;96870;-66
2021/05/09 07:48:32;;;;;;;0.73;0.68;;;27.80;66.20;;;32.35;50.06;100437.97;5032910;27;98207;-67
2021/05/09 07:51:00;;;;;;;5.80;0.35;;;28.00;66.00;;;32.33;50.24;100436.88;5032399;27;96986;-66
2021/05/09 07:53:33;;;;;;;0.60;0.60;;;28.10;66.00;;;32.18;50.44;100428.34;5030608;27;98125;-66
2021/05/09 07:56:01;;;;;;;0.10;0.10;;;28.10;65.60;;;32.16;50.49;100427.25;5047669;27;96921;-66
2021/05/09 07:58:31;;;;;;;1.25;0.98;;;28.20;66.20;;;32.22;50.36;100423.44;5047126;27;97432;-66
2021/05/09 08:01:04;;;;;;;0.40;0.40;;;28.20;65.40;;;32.49;50.01;100420.78;5046279;27;98079;-66
2021/05/09 08:03:32;;;;;;;5.18;0.50;;;28.30;65.40;;;32.73;49.29;100407.91;5048099;27;98370;-66
2021/05/09 08:06:00;;;;;;;0.30;0.30;;;28.40;65.40;;;32.90;49.15;100403.63;5032535;27;97303;-66
2021/05/09 08:08:31;;;;;;;0.30;0.30;;;28.50;65.30;;;32.93;49.45;100399.91;5046800;27;97174;-66
2021/05/09 08:11:00;;;;;;;1.17;0.43;;;28.70;65.10;;;32.92;49.42;100381.72;5049130;27;96865;-66
2021/05/09 08:13:31;;;;;;;0.05;0.05;;;28.80;65.00;;;32.83;49.78;100393.56;5049175;27;96773;-66
2021/05/09 08:15:59;;;;;;;0.22;0.22;;;28.70;64.70;;;32.75;49.52;100399.91;5050233;27;96860;-68
2021/05/09 08:18:28;;;;;;;4.05;0.47;;;28.70;64.50;;;32.69;49.64;100398.94;5034209;27;97353;-66
2021/05/09 08:20:57;;;;;;;0.43;0.43;;;28.70;64.60;;;32.72;49.56;100401.59;5050503;27;98822;-66
2021/05/09 08:23:25;;;;;;;0.20;0.20;;;28.60;64.60;;;32.87;49.09;100410.84;5048441;27;97682;-68
2021/05/09 08:25:52;;;;;;;0.20;0.10;;;28.70;64.50;;;32.92;49.16;100406.69;5028874;27;97930;-68
2021/05/09 08:28:20;;;;;;;1.00;0.57;;;28.70;64.40;;;32.79;49.37;100406.06;5051485;27;97910;-68
2021/05/09 08:30:48;;;;;;;1.55;0.30;;;28.70;64.30;;;32.74;49.25;100401.13;5046378;27;97302;-68
2021/05/09 08:33:16;;;;;;;0.32;0.32;;;28.70;64.00;;;32.49;49.52;100398.56;5030708;27;97124;-68
2021/05/09 08:35:45;;;;;;;0.65;0.30;;;;;;;32.30;49.48;100382.34;5050993;27;97169;-68
2021/05/09 08:38:12;;;;;;;0.00;0.00;;;28.50;63.20;;;32.11;49.64;100383.44;5017156;27;97896;-68
2021/05/09 08:40:40;;;;;;;0.00;0.00;;;28.30;63.90;;;32.20;49.31;100375.19;5048476;27;98239;-67
2021/05/09 08:43:08;;;;;;;0.40;0.30;;;28.20;63.90;;;32.46;48.75;100371.75;5049853;27;97994;-67
2021/05/09 08:45:35;;;;;;;0.40;0.30;;;28.20;64.70;;;32.63;48.39;100373.00;5049371;27;97135;-67
2021/05/09 08:48:07;;;;;;;0.52;0.45;;;28.30;63.90;;;32.57;48.78;100367.28;5028670;27;97124;-68
2021/05/09 08:50:35;;;;;;;1.55;0.20;;;28.40;63.60;;;32.33;48.83;100359.97;5045013;27;97021;-68
2021/05/09 08:53:05;;;;;;;0.20;0.20;;;28.30;63.60;;;31.96;49.45;100355.50;5026332;27;97661;-67
2021/05/09 08:55:33;;;;;;;0.00;0.00;;;28.20;63.10;;;31.69;49.67;100349.81;5043988;27;96957;-67
2021/05/09 08:58:03;;;;;;;0.20;0.20;;;28.10;63.20;;;31.42;49.69;100341.31;5028866;27;97238;-67
2021/05/09 09:00:30;;;;;;;0.15;0.15;;;27.90;62.90;;;31.00;49.83;100326.22;5050048;27;97032;-68
2021/05/09 09:03:02;;;;;;;0.10;0.10;;;27.70;62.80;;;30.75;50.26;100315.25;5046179;27;97899;-67
2021/05/09 09:05:39;;;;;;;1.20;0.35;;;27.40;62.80;;;31.10;49.14;100311.25;5048257;27;98344;-67
2021/05/09 09:08:09;;;;;;;0.45;0.22;;;27.30;63.10;;;31.55;48.30;100308.78;5049453;27;97474;-68
2021/05/09 09:10:43;;;;;;;0.15;0.15;;;27.40;63.10;;;32.00;47.38;100300.69;5048689;27;96883;-67
2021/05/09 09:13:24;;;;;;;0.73;0.30;;;27.50;63.00;;;32.61;46.50;100306.09;5047631;27;97345;-67
2021/05/09 09:15:57;;;;;;;0.45;0.32;;;27.90;62.50;;;32.93;46.09;100311.06;5041972;27;98208;-69
2021/05/09 09:18:34;;;;;;;0.05;0.05;;;28.20;62.70;;;33.13;46.05;100323.25;5047731;27;97093;-66
2021/05/09 09:21:27;;;;;;;1.08;0.32;;;28.50;62.10;;;32.79;46.77;100320.03;5043556;27;96833;-67
2021/05/09 09:24:04;;;;;;;0.20;0.15;;;28.70;60.90;;;32.53;47.06;100299.31;5044534;27;97788;-67
2021/05/09 09:26:37;;;;;;;1.13;0.47;;;28.60;61.30;;;32.58;47.04;100298.69;5043965;27;96930;-67
2021/05/09 09:29:25;;;;;;;5.82;0.20;;;28.60;61.30;;;32.82;46.51;100291.34;5031648;27;98524;-67
2021/05/09 09:31:56;;;;;;;0.05;0.05;;;28.70;60.80;;;32.93;46.06;100277.75;5047200;27;98019;-66
2021/05/09 09:34:39;;;;;;;0.00;0.00;;;28.70;61.20;;;32.86;46.10;100276.06;5051684;27;97481;-66
2021/05/09 09:37:09;;;;;;;0.00;0.00;;;28.80;60.60;;;32.41;46.73;100268.94;5033815;27;97019;-69
2021/05/09 09:39:49;;;;;;;0.38;0.38;;;28.70;60.70;;;31.95;47.75;100270.00;5049791;27;96973;-69
2021/05/09 09:42:35;;;;;;;0.00;0.00;;;28.40;60.40;;;31.99;47.47;100265.88;5050105;27;97940;-68
2021/05/09 09:45:16;;;;;;;0.35;0.30;;;28.30;60.80;;;32.45;46.41;100264.78;5030375;27;97604;-70
2021/05/09 09:47:50;;;;;;;0.10;0.10;;;28.30;60.50;;;32.79;45.69;100262.50;5026932;27;98373;-71
2021/05/09 09:50:36;;;;;;;0.30;0.30;;;28.50;60.80;;;33.17;44.83;100251.63;5028027;27;97125;-70
2021/05/09 09:53:30;;;;;;;0.38;0.17;;;28.70;60.30;;;33.23;45.09;100252.59;5047463;27;96840;-69
2021/05/09 09:56:04;;;;;;;0.10;0.10;;;28.90;60.00;;;33.03;45.04;100263.41;5046484;27;97806;-69
2021/05/09 09:58:49;;;;;;;0.10;0.03;;;28.90;59.80;;;32.72;45.76;100262.03;5046704;27;97055;-69
2021/05/09 10:01:22;;;;;;;0.15;0.10;;;28.80;59.50;;;32.67;45.51;100273.75;5028791;27;97016;-69
2021/05/09 10:03:52;;;;;;;0.28;0.28;;;28.80;59.80;;;32.79;45.07;100268.03;5049932;27;97962;-70
2021/05/09 10:06:22;;;;;;;1.30;0.30;;;28.80;59.90;;;33.14;44.73;100271.25;5046170;27;97148;-69
2021/05/09 10:08:51;;;;;;;0.50;0.50;;;28.90;59.80;;;33.26;44.29;100273.09;5031543;27;97245;-69
2021/05/09 10:11:20;;;;;;;1.17;0.40;;;29.10;59.60;;;33.28;44.39;100274.19;5043650;27;97359;-69
2021/05/09 10:13:50;;;;;;;2.15;0.22;;;29.20;59.20;;;33.10;44.64;100274.19;5028097;27;97872;-68
2021/05/09 10:16:23;;;;;;;0.13;0.13;;;29.20;59.00;;;33.04;44.60;100267.72;5043606;27;96895;-69
2021/05/09 10:18:56;;;;;;;0.00;0.00;;;29.10;58.90;;;32.79;44.90;100264.50;5046105;27;97717;-69
2021/05/09 10:21:27;;;;;;;0.35;0.10;;;29.00;59.00;;;32.57;45.42;100272.19;5045261;27;97155;-69
2021/05/09 10:24:16;;;;;;;0.17;0.10;;;28.90;58.90;;;32.55;45.01;100264.31;5030315;27;97002;-68
2021/05/09 10:26:54;;;;;;;0.35;0.35;;;28.80;58.60;;;32.75;44.61;100261.88;5025997;27;97550;-68